Time;durP1;ratioP1;P1;durP2;ratioP2;P2;SDS_P1;SDS_P2;PMS_P1;PMS_P2;Temp;Humidity;BMP_temperature;BMP_pressure;BME280_temperature;BME280_humidity;BME280_pressure;Samples;Min_cycle;Max_cycle;Signal;HPM_P1;HPM_P2
2022/10/13 00:00:20;;;;;;;;;;;11.50;99.90;;;;;;4845703;29;20554;-77
2022/10/13 00:02:45;;;;;;;23.73;15.93;;;11.50;99.90;;;;;;4862720;29;20014;-77
2022/10/13 00:05:11;;;;;;;;;;;11.50;99.90;;;;;;4862797;29;20722;-78
2022/10/13 00:07:36;;;;;;;20.60;15.88;;;11.40;99.90;;;;;;4862117;29;19919;-77
2022/10/13 00:10:02;;;;;;;;;;;11.40;99.90;;;;;;4845757;29;20481;-77
2022/10/13 00:12:28;;;;;;;23.63;16.00;;;11.40;99.90;;;;;;4845407;29;19919;-78
2022/10/13 00:14:53;;;;;;;;;;;11.40;99.90;;;;;;4846803;29;20037;-77
2022/10/13 00:17:19;;;;;;;26.70;16.15;;;11.40;99.90;;;;;;4862820;29;20282;-77
2022/10/13 00:19:44;;;;;;;;;;;11.40;99.90;;;;;;4863458;29;20042;-77
2022/10/13 00:22:10;;;;;;;24.60;15.20;;;11.40;99.90;;;;;;4845365;29;19912;-77
2022/10/13 00:24:37;;;;;;;;;;;11.40;99.90;;;;;;4862296;29;20519;-78
2022/10/13 00:27:21;;;;;;;25.60;16.05;;;11.30;99.90;;;;;;4844348;29;20368;-77
2022/10/13 00:29:47;;;;;;;29.05;16.52;;;11.30;99.90;;;;;;4860741;29;20030;-77
2022/10/13 00:32:12;;;;;;;;;;;11.30;99.90;;;;;;4861095;29;20040;-77
2022/10/13 00:34:38;;;;;;;27.90;16.05;;;11.30;99.90;;;;;;4860526;29;19915;-77
2022/10/13 00:37:04;;;;;;;;;;;11.20;99.90;;;;;;4861629;29;20504;-77
2022/10/13 00:39:30;;;;;;;20.25;15.27;;;11.30;99.90;;;;;;4844586;29;19959;-77
2022/10/13 00:41:57;;;;;;;26.58;17.55;;;11.30;99.90;;;;;;4843893;29;20060;-75
2022/10/13 00:44:56;;;;;;;24.80;15.15;;;11.30;99.90;;;;;;4857433;29;20107;-75
2022/10/13 00:47:23;;;;;;;24.20;15.77;;;11.30;99.90;;;;;;4858965;29;20507;-75
2022/10/13 00:49:49;;;;;;;32.60;17.13;;;11.30;99.90;;;;;;4858988;29;20474;-75
2022/10/13 00:52:18;;;;;;;29.67;15.90;;;11.30;99.90;;;;;;4858815;29;20108;-75
2022/10/13 00:54:44;;;;;;;21.77;15.43;;;11.30;99.90;;;;;;4859264;29;20041;-75
2022/10/13 00:57:10;;;;;;;;;;;11.40;99.90;;;;;;4842597;29;20046;-75
2022/10/13 00:59:37;;;;;;;23.35;14.38;;;11.40;99.90;;;;;;4859840;29;19973;-78
2022/10/13 01:02:03;;;;;;;27.45;14.13;;;11.40;99.90;;;;;;4860959;29;20049;-78
2022/10/13 01:04:50;;;;;;;;;;;11.40;99.90;;;;;;4861033;29;20041;-78
2022/10/13 01:07:18;;;;;;;18.97;13.33;;;11.40;99.90;;;;;;4857724;29;19919;-77
2022/10/13 01:09:44;;;;;;;20.88;14.07;;;11.40;99.90;;;;;;4844598;29;20273;-75
2022/10/13 01:12:22;;;;;;;;;;;11.40;99.90;;;;;;4859035;29;20085;-74
2022/10/13 01:14:54;;;;;;;28.90;15.13;;;11.50;99.90;;;;;;4858541;29;19951;-75
2022/10/13 01:17:57;;;;;;;21.88;14.77;;;11.50;99.90;;;;;;4859084;29;20056;-75
2022/10/13 01:20:28;;;;;;;21.13;14.80;;;11.50;99.90;;;;;;4841825;29;20539;-75
2022/10/13 01:23:18;;;;;;;20.55;13.60;;;11.50;99.90;;;;;;4858174;29;20037;-75
2022/10/13 01:25:51;;;;;;;22.10;14.30;;;11.50;99.90;;;;;;4858074;29;20040;-74
2022/10/13 01:28:26;;;;;;;17.60;13.07;;;11.50;99.90;;;;;;4841594;29;20089;-74
2022/10/13 01:31:01;;;;;;;20.95;13.35;;;11.60;99.90;;;;;;4858158;29;20038;-75
2022/10/13 01:33:48;;;;;;;23.27;15.23;;;11.60;99.90;;;;;;4858432;29;20601;-75
2022/10/13 01:37:06;;;;;;;23.00;15.13;;;11.60;99.90;;;;;;4858230;29;20033;-74
2022/10/13 01:40:12;;;;;;;22.08;14.60;;;11.60;99.90;;;;;;4814656;29;20054;-75
2022/10/13 01:42:59;;;;;;;20.00;13.73;;;11.60;99.90;;;;;;4858839;29;20097;-75
2022/10/13 01:45:39;;;;;;;16.80;13.20;;;11.60;99.90;;;;;;4858465;29;20046;-75
2022/10/13 01:48:06;;;;;;;23.80;13.60;;;11.60;99.90;;;;;;4858288;29;20071;-75
2022/10/13 01:50:33;;;;;;;21.75;14.02;;;11.60;99.90;;;;;;4858131;29;20036;-75
2022/10/13 01:53:02;;;;;;;19.08;13.13;;;11.60;99.90;;;;;;4858508;29;20483;-75
2022/10/13 01:55:28;;;;;;;16.08;12.05;;;11.70;99.90;;;;;;4857369;29;20098;-75
2022/10/13 01:57:55;;;;;;;21.50;13.80;;;11.70;99.90;;;;;;4858851;29;20044;-75
2022/10/13 02:00:22;;;;;;;27.30;14.85;;;11.70;99.90;;;;;;4842110;29;20109;-75
2022/10/13 02:02:56;;;;;;;23.13;14.68;;;11.70;99.90;;;;;;4858663;29;20571;-74
2022/10/13 02:05:27;;;;;;;23.23;14.10;;;11.70;99.90;;;;;;4841895;29;20411;-74
2022/10/13 02:08:14;;;;;;;19.70;15.35;;;11.60;99.90;;;;;;4841431;29;20033;-75
2022/10/13 02:10:45;;;;;;;22.73;14.70;;;11.50;99.90;;;;;;4858093;29;20044;-74
2022/10/13 02:13:14;;;;;;;27.33;15.13;;;11.50;99.90;;;;;;4857737;29;20270;-75
2022/10/13 02:15:47;;;;;;;25.98;14.77;;;11.40;99.90;;;;;;4857548;29;20037;-74
2022/10/13 02:18:16;;;;;;;22.00;14.88;;;11.40;99.90;;;;;;4857306;29;20052;-75
2022/10/13 02:20:43;;;;;;;27.23;16.58;;;11.30;99.90;;;;;;4858233;29;20044;-75
2022/10/13 02:23:12;;;;;;;30.17;16.85;;;11.30;99.90;;;;;;4858221;29;20524;-75
2022/10/13 02:25:38;;;;;;;25.02;14.82;;;11.20;99.90;;;;;;4857990;29;20025;-75
2022/10/13 02:28:04;;;;;;;21.17;15.32;;;11.20;99.90;;;;;;4858034;29;20044;-75
2022/10/13 02:30:32;;;;;;;25.90;15.15;;;11.20;99.90;;;;;;4858058;29;20030;-74
2022/10/13 02:33:01;;;;;;;27.83;14.05;;;11.10;99.90;;;;;;4858020;29;20039;-74
2022/10/13 02:35:29;;;;;;;21.30;14.00;;;11.10;99.90;;;;;;4858210;29;20029;-74
2022/10/13 02:37:55;;;;;;;18.63;13.60;;;11.10;99.90;;;;;;4842296;29;20581;-74
2022/10/13 02:40:22;;;;;;;;;;;11.00;99.90;;;;;;4860223;29;20129;-75
2022/10/13 02:42:47;;;;;;;17.67;13.23;;;11.00;99.90;;;;;;4860976;29;20326;-70
2022/10/13 02:45:13;;;;;;;;;;;11.00;99.90;;;;;;4858979;29;20545;-77
2022/10/13 02:47:39;;;;;;;21.75;15.90;;;10.80;99.90;;;;;;4858890;29;19912;-77
2022/10/13 02:50:05;;;;;;;;;;;10.70;99.90;;;;;;4858601;29;20029;-76
2022/10/13 02:52:31;;;;;;;27.80;17.27;;;10.70;99.90;;;;;;4858487;29;19914;-76
2022/10/13 02:54:56;;;;;;;;;;;10.60;99.90;;;;;;4858794;29;20052;-77
2022/10/13 02:57:22;;;;;;;25.67;17.70;;;10.60;99.90;;;;;;4857850;29;19924;-76
2022/10/13 02:59:47;;;;;;;;;;;10.60;99.90;;;;;;4857942;29;20057;-76
2022/10/13 03:02:13;;;;;;;25.45;16.45;;;10.50;99.90;;;;;;4857854;29;19912;-76
2022/10/13 03:04:39;;;;;;;;;;;10.50;99.90;;;;;;4841709;29;20779;-77
2022/10/13 03:07:04;;;;;;;22.77;16.38;;;10.50;99.90;;;;;;4840876;29;19960;-77
2022/10/13 03:09:30;;;;;;;;;;;10.40;99.90;;;;;;4858164;29;20069;-76
2022/10/13 03:11:55;;;;;;;26.05;17.55;;;10.40;99.90;;;;;;4841389;29;20381;-77
2022/10/13 03:14:21;;;;;;;;;;;10.50;99.90;;;;;;4858054;29;20034;-76
2022/10/13 03:16:47;;;;;;;28.25;18.92;;;10.30;99.90;;;;;;4841053;29;19920;-77
2022/10/13 03:19:12;;;;;;;;;;;10.30;99.90;;;;;;4858416;29;20117;-76
2022/10/13 03:21:38;;;;;;;26.58;21.25;;;10.20;99.90;;;;;;4857856;29;19912;-77
2022/10/13 03:24:06;;;;;;;;;;;10.30;99.90;;;;;;4858782;29;20085;-77
2022/10/13 03:26:33;;;;;;;37.95;21.38;;;10.10;99.90;;;;;;4841678;29;19934;-77
2022/10/13 03:28:58;;;;;;;30.08;19.60;;;10.10;99.90;;;;;;4858583;29;20030;-76
2022/10/13 03:31:24;;;;;;;;;;;10.10;99.90;;;;;;4860862;29;20121;-76
2022/10/13 03:33:50;;;;;;;31.42;20.00;;;10.00;99.90;;;;;;4861258;29;20377;-76
2022/10/13 03:36:16;;;;;;;30.60;21.15;;;10.00;99.90;;;;;;4860728;29;20045;-76
2022/10/13 03:38:42;;;;;;;37.47;26.13;;;9.90;99.90;;;;;;4861439;29;20057;-77
2022/10/13 03:41:17;;;;;;;;;;;9.90;99.90;;;;;;4862107;29;20391;-77
2022/10/13 03:43:43;;;;;;;25.85;15.98;;;9.80;99.90;;;;;;4844840;29;19935;-77
2022/10/13 03:46:12;;;;;;;31.23;16.15;;;9.80;99.90;;;;;;4860689;29;20060;-76
2022/10/13 03:48:38;;;;;;;23.25;14.10;;;9.70;99.90;;;;;;4844477;29;20086;-76
2022/10/13 03:51:06;;;;;;;18.90;11.60;;;9.70;99.90;;;;;;4844630;29;20100;-76
2022/10/13 03:53:32;;;;;;;20.10;11.38;;;9.60;99.90;;;;;;4844214;29;20113;-77
2022/10/13 03:55:57;;;;;;;;;;;9.60;99.90;;;;;;4843486;29;20116;-77
2022/10/13 03:58:24;;;;;;;18.23;9.13;;;9.60;99.90;;;;;;4861213;29;19912;-75
2022/10/13 04:00:51;;;;;;;17.67;10.93;;;9.60;99.90;;;;;;4853976;29;20069;-74
2022/10/13 04:03:16;;;;;;;23.75;16.67;;;9.60;99.90;;;;;;4859354;29;20161;-74
2022/10/13 04:05:42;;;;;;;;;;;9.50;99.90;;;;;;4856296;29;20084;-74
2022/10/13 04:08:08;;;;;;;21.20;13.88;;;9.50;99.90;;;;;;4845478;29;19912;-73
2022/10/13 04:10:34;;;;;;;25.92;15.00;;;9.50;99.90;;;;;;4842215;29;20030;-74
2022/10/13 04:12:59;;;;;;;;;;;9.50;99.90;;;;;;4855054;29;20033;-74
2022/10/13 04:15:26;;;;;;;24.08;12.05;;;9.50;99.90;;;;;;4861005;29;20023;-74
2022/10/13 04:17:51;;;;;;;19.90;11.52;;;9.40;99.90;;;;;;4843820;29;20096;-74
2022/10/13 04:20:17;;;;;;;;;;;9.40;99.90;;;;;;4860919;29;20053;-74
2022/10/13 04:22:42;;;;;;;19.25;11.25;;;9.40;99.90;;;;;;4859264;29;19922;-74
2022/10/13 04:25:08;;;;;;;;;;;9.40;99.90;;;;;;4860300;29;20049;-75
2022/10/13 04:27:37;;;;;;;18.90;11.85;;;9.40;99.90;;;;;;4843338;29;20699;-74
2022/10/13 04:30:04;;;;;;;22.45;14.00;;;9.40;99.90;;;;;;4844468;29;20132;-74
2022/10/13 04:32:30;;;;;;;23.02;13.07;;;9.40;99.90;;;;;;4859683;29;20048;-74
2022/10/13 04:34:56;;;;;;;;;;;9.40;99.90;;;;;;4844049;29;20038;-74
2022/10/13 04:37:22;;;;;;;19.65;9.48;;;9.40;99.90;;;;;;4860640;29;19927;-74
2022/10/13 04:39:48;;;;;;;14.95;9.00;;;9.30;99.90;;;;;;4860423;29;20526;-74
2022/10/13 04:42:13;;;;;;;;;;;9.30;99.90;;;;;;4854864;29;20558;-73
2022/10/13 04:44:39;;;;;;;15.55;8.75;;;9.30;99.90;;;;;;4842164;29;19920;-74
2022/10/13 04:47:04;;;;;;;;;;;9.20;99.90;;;;;;4842267;29;20038;-74
2022/10/13 04:49:30;;;;;;;18.30;9.63;;;9.20;99.90;;;;;;4851092;29;19920;-74
2022/10/13 04:51:56;;;;;;;16.33;10.70;;;9.20;99.90;;;;;;4868788;29;20033;-74
2022/10/13 04:54:21;;;;;;;;;;;9.10;99.90;;;;;;4869431;29;20257;-74
2022/10/13 04:56:47;;;;;;;20.98;10.90;;;9.00;99.90;;;;;;4850139;29;19975;-74
2022/10/13 04:59:13;;;;;;;;;;;9.10;99.90;;;;;;4853191;29;20035;-74
2022/10/13 05:01:38;;;;;;;16.73;8.77;;;9.10;99.90;;;;;;4850203;29;20282;-74
2022/10/13 05:04:04;;;;;;;;;;;9.10;99.90;;;;;;4868040;29;20464;-74
2022/10/13 05:06:34;;;;;;;15.02;9.35;;;9.10;99.90;;;;;;4854891;29;19919;-75
2022/10/13 05:09:01;;;;;;;22.88;8.88;;;9.10;99.90;;;;;;4850398;29;20028;-75
2022/10/13 05:11:27;;;;;;;;;;;9.00;99.90;;;;;;4867947;29;20172;-74
2022/10/13 05:13:54;;;;;;;30.55;16.08;;;9.00;99.90;;;;;;4863535;29;19920;-74
2022/10/13 05:16:21;;;;;;;29.50;17.40;;;9.00;99.90;;;;;;4838763;29;20049;-74
2022/10/13 05:18:51;;;;;;;33.03;18.42;;;9.00;99.90;;;;;;4842537;29;20037;-74
2022/10/13 05:21:22;;;;;;;37.75;20.65;;;9.20;99.90;;;;;;4842672;29;20053;-74
2022/10/13 05:23:48;;;;;;;31.13;17.63;;;9.10;99.90;;;;;;4842871;29;20120;-74
2022/10/13 05:26:17;;;;;;;;;;;9.10;99.90;;;;;;4859709;29;20476;-74
2022/10/13 05:28:43;;;;;;;56.20;24.65;;;9.10;99.90;;;;;;4858978;29;19916;-74
2022/10/13 05:31:13;;;;;;;;;;;9.20;99.90;;;;;;4842363;29;20589;-74
2022/10/13 05:33:39;;;;;;;27.33;13.93;;;9.20;99.90;;;;;;4842069;29;19908;-74
2022/10/13 05:36:06;;;;;;;;;;;9.40;99.90;;;;;;4841960;29;20136;-74
2022/10/13 05:38:31;;;;;;;22.90;12.10;;;9.50;99.90;;;;;;4841299;29;20065;-74
2022/10/13 05:41:00;;;;;;;;;;;9.60;99.90;;;;;;4840881;29;20169;-75
2022/10/13 05:43:26;;;;;;;17.48;10.60;;;9.60;99.90;;;;;;4857871;29;20316;-75
2022/10/13 05:45:51;;;;;;;;;;;9.80;99.90;;;;;;4858073;29;20067;-76
2022/10/13 05:48:17;;;;;;;19.73;11.05;;;9.90;99.90;;;;;;4858183;29;19916;-76
2022/10/13 05:50:42;;;;;;;;;;;10.00;99.90;;;;;;4842359;29;20045;-75
2022/10/13 05:53:08;;;;;;;17.40;11.02;;;10.20;99.90;;;;;;4857745;29;19908;-75
2022/10/13 05:55:34;;;;;;;;;;;10.20;99.90;;;;;;4858396;29;20044;-75
2022/10/13 05:58:01;;;;;;;18.35;11.65;;;10.40;99.90;;;;;;4857939;29;19916;-75
2022/10/13 06:00:27;;;;;;;18.48;12.98;;;10.40;99.90;;;;;;4856327;29;20034;-75
2022/10/13 06:03:20;;;;;;;18.58;12.25;;;10.60;99.90;;;;;;4845487;29;20038;-76
2022/10/13 06:05:46;;;;;;;17.75;11.77;;;10.70;99.90;;;;;;4840728;29;20086;-75
2022/10/13 06:08:13;;;;;;;;;;;10.80;99.90;;;;;;4841978;29;20042;-75
2022/10/13 06:10:39;;;;;;;26.07;14.90;;;10.90;99.90;;;;;;4857331;29;19923;-75
2022/10/13 06:13:05;;;;;;;22.00;13.30;;;11.10;99.90;;;;;;4851037;29;20037;-75
2022/10/13 06:15:30;;;;;;;;;;;11.20;99.90;;;;;;4839267;29;20033;-75
2022/10/13 06:17:56;;;;;;;29.95;16.05;;;11.30;99.90;;;;;;4851924;29;20276;-75
2022/10/13 06:20:21;;;;;;;;;;;11.40;99.90;;;;;;4859492;29;20113;-75
2022/10/13 06:22:49;;;;;;;26.60;16.38;;;11.50;99.90;;;;;;4859301;29;20306;-75
2022/10/13 06:25:14;;;;;;;27.25;14.75;;;11.70;99.90;;;;;;4841876;29;20661;-76
2022/10/13 06:27:40;;;;;;;;;;;11.90;99.90;;;;;;4846366;29;20048;-76
2022/10/13 06:30:06;;;;;;;20.48;12.98;;;12.10;99.90;;;;;;4841228;29;19935;-76
2022/10/13 06:32:32;;;;;;;21.38;11.60;;;12.30;99.90;;;;;;4858660;29;20248;-75
2022/10/13 06:34:58;;;;;;;;;;;12.50;99.90;;;;;;4842974;29;20132;-75
2022/10/13 06:37:23;;;;;;;18.42;11.60;;;12.70;99.90;;;;;;4840962;29;19927;-75
2022/10/13 06:39:49;;;;;;;;;;;12.90;99.90;;;;;;4842585;29;20081;-75
2022/10/13 06:42:15;;;;;;;20.80;11.70;;;13.00;99.90;;;;;;4840511;29;19973;-75
2022/10/13 06:44:41;;;;;;;16.17;11.20;;;13.10;99.90;;;;;;4841850;29;20041;-75
2022/10/13 06:47:06;;;;;;;;;;;13.30;99.90;;;;;;4859031;29;20045;-76
2022/10/13 06:49:32;;;;;;;18.75;12.50;;;13.50;99.90;;;;;;4858013;29;19978;-75
2022/10/13 06:51:58;;;;;;;20.50;12.00;;;13.60;99.90;;;;;;4858806;29;20043;-76
2022/10/13 06:54:23;;;;;;;20.42;12.57;;;13.80;99.90;;;;;;4841621;29;20033;-75
2022/10/13 06:56:50;;;;;;;22.88;11.40;;;13.90;99.90;;;;;;4858231;29;20073;-75
2022/10/13 06:59:16;;;;;;;15.27;11.18;;;14.00;99.90;;;;;;4857984;29;20030;-76
2022/10/13 07:01:41;;;;;;;18.83;12.10;;;14.20;99.90;;;;;;4858028;29;20377;-75
2022/10/13 07:04:08;;;;;;;15.45;11.43;;;14.30;99.90;;;;;;4859309;29;20511;-75
2022/10/13 07:06:33;;;;;;;22.88;11.60;;;14.40;99.90;;;;;;4844598;29;20037;-75
2022/10/13 07:09:03;;;;;;;18.65;10.27;;;14.50;99.90;;;;;;4861570;29;20038;-76
2022/10/13 07:11:28;;;;;;;23.48;11.27;;;14.60;99.90;;;;;;4861396;29;20056;-76
2022/10/13 07:13:54;;;;;;;15.15;10.40;;;14.70;99.90;;;;;;4862079;29;20091;-75
2022/10/13 07:16:19;;;;;;;15.27;10.27;;;14.90;99.90;;;;;;4844668;29;20451;-76
2022/10/13 07:18:45;;;;;;;;;;;15.00;99.90;;;;;;4846186;29;20085;-76
2022/10/13 07:21:11;;;;;;;15.48;8.30;;;15.20;99.90;;;;;;4861769;29;19908;-76
2022/10/13 07:23:37;;;;;;;12.38;8.75;;;15.30;99.90;;;;;;4845222;29;20040;-76
2022/10/13 07:26:07;;;;;;;17.75;7.85;;;15.50;99.90;;;;;;4845101;29;20518;-75
2022/10/13 07:28:33;;;;;;;11.30;6.78;;;15.70;99.90;;;;;;4844938;29;20052;-76
2022/10/13 07:30:58;;;;;;;9.88;6.03;;;15.70;99.90;;;;;;4861547;29;20026;-76
2022/10/13 07:33:24;;;;;;;17.88;6.70;;;15.80;99.90;;;;;;4845891;29;20038;-77
2022/10/13 07:35:50;;;;;;;18.30;5.63;;;15.80;99.90;;;;;;4862498;29;20395;-76
2022/10/13 07:38:15;;;;;;;11.57;5.00;;;15.90;99.90;;;;;;4860240;29;20053;-76
2022/10/13 07:40:41;;;;;;;19.02;5.82;;;15.90;99.90;;;;;;4843689;29;20036;-76
2022/10/13 07:43:07;;;;;;;14.70;7.07;;;15.90;99.90;;;;;;4843190;29;20383;-77
2022/10/13 07:45:32;;;;;;;14.13;6.15;;;16.00;99.90;;;;;;4859789;29;20548;-76
2022/10/13 07:47:58;;;;;;;16.45;7.60;;;16.10;99.90;;;;;;4843553;29;20062;-76
2022/10/13 07:50:23;;;;;;;21.27;8.38;;;16.20;99.90;;;;;;4859881;29;20116;-76
2022/10/13 07:52:49;;;;;;;25.45;7.85;;;16.30;99.90;;;;;;4860108;29;20033;-75
2022/10/13 07:55:15;;;;;;;15.93;8.10;;;16.50;99.90;;;;;;4860076;29;20041;-76
2022/10/13 07:57:40;;;;;;;17.85;7.82;;;16.60;99.90;;;;;;4860085;29;20137;-76
2022/10/13 08:00:07;;;;;;;23.63;8.48;;;16.70;99.90;;;;;;4843272;29;20037;-76
2022/10/13 08:02:33;;;;;;;20.52;10.13;;;16.90;99.90;;;;;;4860389;29;20030;-76
2022/10/13 08:04:59;;;;;;;18.98;8.93;;;17.00;99.90;;;;;;4843631;29;20038;-77
2022/10/13 08:07:25;;;;;;;21.08;8.73;;;16.90;99.90;;;;;;4859738;29;20056;-76
2022/10/13 08:09:50;;;;;;;22.83;8.98;;;16.90;99.90;;;;;;4843059;29;20063;-76
2022/10/13 08:12:16;;;;;;;19.23;9.40;;;17.00;99.90;;;;;;4842837;29;20034;-76
2022/10/13 08:14:41;;;;;;;11.77;7.28;;;16.90;99.90;;;;;;4859186;29;20037;-76
2022/10/13 08:17:07;;;;;;;17.05;5.53;;;16.90;99.90;;;;;;4859707;29;20060;-75
2022/10/13 08:19:33;;;;;;;15.15;4.60;;;17.00;99.90;;;;;;4859607;29;20038;-76
2022/10/13 08:21:58;;;;;;;9.10;4.15;;;17.00;99.90;;;;;;4842918;29;20376;-76
2022/10/13 08:24:24;;;;;;;10.20;4.05;;;17.10;99.90;;;;;;4842797;29;20056;-76
2022/10/13 08:26:50;;;;;;;12.55;3.88;;;17.10;99.90;;;;;;4859422;29;20021;-76
2022/10/13 08:29:16;;;;;;;17.60;4.60;;;17.10;99.90;;;;;;4843049;29;20037;-76
2022/10/13 08:31:42;;;;;;;12.35;4.18;;;17.20;99.90;;;;;;4859260;29;20061;-76
2022/10/13 08:34:09;;;;;;;17.65;3.83;;;17.10;99.90;;;;;;4843033;29;20503;-75
2022/10/13 08:36:35;;;;;;;12.32;4.90;;;17.20;99.90;;;;;;4859255;29;20026;-76
2022/10/13 08:39:00;;;;;;;14.13;4.15;;;17.20;99.90;;;;;;4859574;29;20058;-76
2022/10/13 08:41:31;;;;;;;9.90;5.13;;;17.30;99.90;;;;;;4859667;29;20036;-76
2022/10/13 08:44:06;;;;;;;12.48;4.78;;;17.20;99.90;;;;;;4842591;29;20038;-75
2022/10/13 08:46:41;;;;;;;23.73;5.25;;;17.20;99.90;;;;;;4859050;29;20121;-76
2022/10/13 08:49:07;;;;;;;11.38;5.45;;;17.20;99.90;;;;;;4859525;29;20036;-76
2022/10/13 08:51:33;;;;;;;14.82;6.22;;;17.20;99.90;;;;;;4859308;29;20847;-77
2022/10/13 08:53:59;;;;;;;8.77;4.40;;;17.20;99.90;;;;;;4842972;29;20037;-76
2022/10/13 08:56:29;;;;;;;10.35;4.47;;;17.30;99.90;;;;;;4842329;29;20040;-76
2022/10/13 08:58:55;;;;;;;14.90;4.85;;;17.40;99.90;;;;;;4842682;29;20136;-76
2022/10/13 09:01:24;;;;;;;26.23;5.45;;;17.40;99.90;;;;;;4859320;29;20533;-76
2022/10/13 09:03:51;;;;;;;17.17;6.13;;;17.40;99.90;;;;;;4842401;29;20132;-76
2022/10/13 09:06:55;;;;;;;11.55;4.70;;;17.40;99.90;;;;;;4842356;29;20033;-76
2022/10/13 09:09:20;;;;;;;16.67;5.95;;;17.50;99.90;;;;;;4786846;29;20169;-76
2022/10/13 09:11:48;;;;;;;17.42;5.57;;;17.50;99.90;;;;;;4848535;29;20052;-76
2022/10/13 09:14:32;;;;;;;8.13;4.78;;;17.50;99.90;;;;;;4858571;29;20548;-76
2022/10/13 09:17:23;;;;;;;12.48;5.75;;;17.60;99.90;;;;;;4858926;29;20070;-76
2022/10/13 09:20:04;;;;;;;10.43;5.50;;;17.70;99.90;;;;;;4859049;29;20513;-77
2022/10/13 09:22:31;;;;;;;16.23;6.07;;;17.80;99.90;;;;;;4858637;29;20112;-77
2022/10/13 09:25:05;;;;;;;13.45;5.00;;;17.90;99.90;;;;;;4859176;29;20029;-77
2022/10/13 09:27:53;;;;;;;16.50;5.95;;;18.10;99.90;;;;;;4841561;29;20034;-77
2022/10/13 09:30:39;;;;;;;12.07;5.38;;;18.30;99.90;;;;;;4857962;29;20150;-77
2022/10/13 09:33:07;;;;;;;12.33;5.73;;;18.40;99.30;;;;;;4859269;29;20104;-76
2022/10/13 09:35:35;;;;;;;11.20;5.50;;;18.50;99.40;;;;;;4842668;29;20044;-76
2022/10/13 09:38:10;;;;;;;24.05;5.20;;;18.60;98.70;;;;;;4859582;29;20048;-76
2022/10/13 09:40:36;;;;;;;14.73;5.32;;;18.80;98.10;;;;;;4858961;29;20030;-78
2022/10/13 09:43:15;;;;;;;11.63;4.50;;;18.90;97.70;;;;;;4858905;29;20061;-76
2022/10/13 09:45:42;;;;;;;9.18;4.15;;;18.90;97.40;;;;;;4842191;29;20081;-76
2022/10/13 09:48:18;;;;;;;12.27;5.20;;;19.00;96.90;;;;;;4858051;29;20022;-75
2022/10/13 09:50:48;;;;;;;15.70;5.55;;;19.10;97.20;;;;;;4857918;29;20066;-77
2022/10/13 09:53:17;;;;;;;9.85;4.85;;;19.20;96.90;;;;;;4857467;29;20033;-75
2022/10/13 09:55:47;;;;;;;12.73;4.90;;;19.20;96.50;;;;;;4840790;29;20037;-75
2022/10/13 09:58:27;;;;;;;13.05;4.65;;;19.30;96.70;;;;;;4857876;29;20098;-76
2022/10/13 10:00:53;;;;;;;13.88;5.50;;;19.50;96.30;;;;;;4857537;29;20057;-78
2022/10/13 10:03:22;;;;;;;10.40;5.63;;;19.70;95.60;;;;;;4855579;29;20045;-77
2022/10/13 10:05:58;;;;;;;13.27;5.07;;;19.90;94.90;;;;;;4840294;29;20037;-78
2022/10/13 10:08:57;;;;;;;11.15;5.18;;;20.10;93.70;;;;;;4857081;29;20090;-77
2022/10/13 10:11:36;;;;;;;12.35;5.00;;;20.10;93.60;;;;;;4857025;29;20046;-81
2022/10/13 10:14:16;;;;;;;12.23;5.15;;;20.10;93.30;;;;;;4856656;29;20052;-76
2022/10/13 10:16:56;;;;;;;10.55;5.13;;;20.00;93.30;;;;;;4856919;29;20716;-75
2022/10/13 10:19:33;;;;;;;16.23;4.90;;;19.70;93.60;;;;;;4840339;29;20037;-78
2022/10/13 10:22:13;;;;;;;10.05;5.05;;;19.60;93.50;;;;;;4856939;29;20026;-76
2022/10/13 10:25:17;;;;;;;9.60;4.45;;;19.50;93.60;;;;;;4840250;29;20197;-76
2022/10/13 10:28:12;;;;;;;10.77;5.25;;;19.60;94.90;;;;;;4839699;29;20431;-76
2022/10/13 10:30:59;;;;;;;12.07;5.18;;;19.40;94.50;;;;;;4841180;29;20571;-77
2022/10/13 10:33:35;;;;;;;6.30;3.58;;;19.40;94.80;;;;;;4841881;29;20040;-77
2022/10/13 10:36:04;;;;;;;10.70;4.57;;;19.50;94.90;;;;;;4858538;29;20029;-78
2022/10/13 10:38:53;;;;;;;10.52;5.55;;;19.40;95.20;;;;;;4842323;29;20045;-77
2022/10/13 10:41:54;;;;;;;11.13;5.03;;;19.40;94.90;;;;;;4841349;29;20038;-77
2022/10/13 10:44:29;;;;;;;12.98;5.15;;;19.30;95.50;;;;;;4830544;29;20612;-76
2022/10/13 10:47:01;;;;;;;12.10;5.80;;;19.20;95.40;;;;;;4840780;29;20077;-77
2022/10/13 10:49:38;;;;;;;15.82;5.78;;;19.30;94.40;;;;;;4856239;29;20044;-77
2022/10/13 10:52:14;;;;;;;11.27;5.60;;;19.10;94.60;;;;;;4856356;29;20040;-77
2022/10/13 10:54:50;;;;;;;18.98;6.20;;;18.80;95.10;;;;;;4857332;29;20047;-76
2022/10/13 10:57:33;;;;;;;18.33;5.97;;;18.60;96.10;;;;;;4857545;29;20045;-77
2022/10/13 11:00:08;;;;;;;10.27;5.38;;;18.70;97.00;;;;;;4857280;29;20045;-76
2022/10/13 11:02:49;;;;;;;16.23;6.85;;;18.80;96.60;;;;;;4840709;29;20384;-77
2022/10/13 11:05:16;;;;;;;14.05;5.35;;;18.90;95.60;;;;;;4858023;29;20060;-76
2022/10/13 11:07:41;;;;;;;10.07;5.82;;;18.70;96.00;;;;;;4857700;29;20642;-77
2022/10/13 11:10:15;;;;;;;12.63;6.28;;;18.70;97.10;;;;;;4857502;29;20154;-76
2022/10/13 11:13:13;;;;;;;14.15;5.85;;;18.90;97.80;;;;;;4840719;29;20550;-76
2022/10/13 11:15:44;;;;;;;15.98;6.32;;;18.90;97.20;;;;;;4857719;29;20029;-77
2022/10/13 11:18:47;;;;;;;27.58;7.60;;;19.00;97.30;;;;;;4840184;29;20053;-75
2022/10/13 11:21:13;;;;;;;15.48;6.00;;;18.90;96.50;;;;;;4857560;29;20456;-76
2022/10/13 11:23:45;;;;;;;19.08;6.18;;;18.90;97.60;;;;;;4840858;29;20037;-77
2022/10/13 11:26:30;;;;;;;10.95;5.80;;;18.80;97.80;;;;;;4857028;29;20086;-76
2022/10/13 11:28:56;;;;;;;18.30;8.07;;;18.90;97.80;;;;;;4840779;29;20042;-77
2022/10/13 11:31:29;;;;;;;18.63;6.70;;;18.80;97.80;;;;;;4840724;29;20121;-76
2022/10/13 11:33:58;;;;;;;15.82;7.43;;;18.80;98.20;;;;;;4840750;29;20037;-77
2022/10/13 11:36:41;;;;;;;17.30;5.75;;;18.80;98.20;;;;;;4856616;29;20033;-76
2022/10/13 11:39:28;;;;;;;10.98;6.72;;;18.70;98.20;;;;;;4857554;29;20082;-77
2022/10/13 11:42:18;;;;;;;13.52;7.10;;;18.70;98.20;;;;;;4840775;29;20581;-76
2022/10/13 11:44:52;;;;;;;15.73;7.10;;;18.60;98.20;;;;;;4857331;29;20033;-76
2022/10/13 11:47:33;;;;;;;15.30;7.22;;;18.50;98.20;;;;;;4840691;29;20415;-76
2022/10/13 11:50:30;;;;;;;17.23;7.38;;;18.40;98.40;;;;;;4841535;29;20121;-76
2022/10/13 11:53:16;;;;;;;13.82;6.60;;;18.30;98.90;;;;;;4860705;29;20495;-76
2022/10/13 11:55:52;;;;;;;11.95;6.47;;;18.20;99.50;;;;;;4859445;29;20045;-75
2022/10/13 11:58:21;;;;;;;14.88;6.03;;;18.30;99.90;;;;;;4843879;29;20090;-75
2022/10/13 12:00:59;;;;;;;10.25;6.65;;;18.30;99.90;;;;;;4843564;29;20436;-76
2022/10/13 12:03:28;;;;;;;20.00;7.80;;;18.30;99.90;;;;;;4860391;29;20034;-76
2022/10/13 12:05:59;;;;;;;16.75;7.72;;;18.30;99.90;;;;;;4843637;29;20033;-76
2022/10/13 12:08:27;;;;;;;16.70;8.55;;;18.40;99.90;;;;;;4860576;29;20058;-76
2022/10/13 12:10:56;;;;;;;15.38;8.20;;;18.40;99.90;;;;;;4860590;29;20117;-75
2022/10/13 12:13:25;;;;;;;10.70;6.50;;;18.30;99.90;;;;;;4860012;29;20021;-76
2022/10/13 12:15:59;;;;;;;16.17;7.57;;;18.20;99.90;;;;;;4860377;29;20037;-76
2022/10/13 12:18:34;;;;;;;16.77;7.68;;;18.30;99.90;;;;;;4843263;29;20045;-76
2022/10/13 12:21:03;;;;;;;18.05;9.48;;;18.40;99.90;;;;;;4844331;29;20060;-77
2022/10/13 12:23:31;;;;;;;16.88;7.70;;;18.50;99.90;;;;;;4860903;29;20036;-76
2022/10/13 12:25:58;;;;;;;21.33;9.40;;;18.60;99.90;;;;;;4843103;29;20120;-76
2022/10/13 12:28:41;;;;;;;15.18;8.73;;;18.80;99.90;;;;;;4842839;29;20026;-76
2022/10/13 12:31:20;;;;;;;19.05;9.85;;;18.90;99.40;;;;;;4843113;29;20046;-75
2022/10/13 12:33:53;;;;;;;16.00;8.50;;;18.80;99.70;;;;;;4842811;29;20085;-76
2022/10/13 12:36:21;;;;;;;18.27;8.95;;;18.90;99.90;;;;;;4842672;29;20128;-76
2022/10/13 12:38:52;;;;;;;12.23;8.48;;;19.20;99.90;;;;;;4843294;29;20400;-76
2022/10/13 12:41:26;;;;;;;20.23;9.50;;;19.30;99.90;;;;;;4859688;29;20029;-77
2022/10/13 12:43:53;;;;;;;13.55;8.32;;;19.40;99.90;;;;;;4859318;29;20518;-76
2022/10/13 12:46:46;;;;;;;18.67;9.13;;;19.40;99.90;;;;;;4859398;29;20055;-76
2022/10/13 12:49:16;;;;;;;13.07;7.97;;;19.40;99.70;;;;;;4859621;29;20064;-77
2022/10/13 12:51:45;;;;;;;10.77;7.30;;;19.40;99.90;;;;;;4859331;29;20065;-78
2022/10/13 12:54:22;;;;;;;21.25;8.88;;;19.30;99.90;;;;;;4842609;29;20030;-76
2022/10/13 12:56:50;;;;;;;17.10;9.82;;;19.30;99.80;;;;;;4859335;29;20533;-76
2022/10/13 12:59:17;;;;;;;15.20;8.15;;;19.10;99.60;;;;;;4859471;29;20036;-76
2022/10/13 13:01:44;;;;;;;17.80;8.57;;;19.00;99.80;;;;;;4859187;29;20499;-76
2022/10/13 13:04:22;;;;;;;14.32;8.13;;;19.00;99.90;;;;;;4859180;29;20037;-76
2022/10/13 13:06:56;;;;;;;15.35;9.88;;;19.00;99.90;;;;;;4842699;29;20038;-75